sensor_id;sensor_type;location;lat;lon;timestamp;P1;durP1;ratioP1;P2;durP2;ratioP2
2123;SDS011;1068;52.460;13.528;2022-09-09T00:01:57;5.03;;;4.67;;
2123;SDS011;1068;52.460;13.528;2022-09-09T00:04:27;4.03;;;3.83;;
2123;SDS011;1068;52.460;13.528;2022-09-09T00:07:04;4.10;;;3.90;;
2123;SDS011;1068;52.460;13.528;2022-09-09T00:09:35;3.90;;;3.70;;
2123;SDS011;1068;52.460;13.528;2022-09-09T00:12:04;5.87;;;4.33;;
2123;SDS011;1068;52.460;13.528;2022-09-09T00:14:34;4.37;;;4.17;;
2123;SDS011;1068;52.460;13.528;2022-09-09T00:17:04;4.30;;;3.90;;
2123;SDS011;1068;52.460;13.528;2022-09-09T00:19:37;4.50;;;4.17;;
2123;SDS011;1068;52.460;13.528;2022-09-09T00:22:08;5.30;;;4.27;;
2123;SDS011;1068;52.460;13.528;2022-09-09T00:24:41;4.40;;;4.10;;
2123;SDS011;1068;52.460;13.528;2022-09-09T00:27:13;3.57;;;3.37;;
2123;SDS011;1068;52.460;13.528;2022-09-09T00:29:43;4.30;;;3.90;;
2123;SDS011;1068;52.460;13.528;2022-09-09T00:32:12;4.00;;;3.80;;
2123;SDS011;1068;52.460;13.528;2022-09-09T00:34:41;4.40;;;4.10;;
2123;SDS011;1068;52.460;13.528;2022-09-09T00:37:09;4.17;;;3.97;;
2123;SDS011;1068;52.460;13.528;2022-09-09T00:39:37;3.90;;;3.60;;
2123;SDS011;1068;52.460;13.528;2022-09-09T00:42:11;4.37;;;4.07;;
2123;SDS011;1068;52.460;13.528;2022-09-09T00:44:43;4.60;;;4.30;;
2123;SDS011;1068;52.460;13.528;2022-09-09T00:47:15;4.20;;;3.90;;
2123;SDS011;1068;52.460;13.528;2022-09-09T00:49:48;4.13;;;3.70;;
2123;SDS011;1068;52.460;13.528;2022-09-09T00:52:23;4.03;;;3.80;;
2123;SDS011;1068;52.460;13.528;2022-09-09T00:54:56;4.30;;;3.90;;
2123;SDS011;1068;52.460;13.528;2022-09-09T00:57:28;4.23;;;3.93;;
2123;SDS011;1068;52.460;13.528;2022-09-09T00:59:57;4.33;;;4.00;;
2123;SDS011;1068;52.460;13.528;2022-09-09T01:02:26;3.77;;;3.57;;
2123;SDS011;1068;52.460;13.528;2022-09-09T01:04:55;4.73;;;4.20;;
2123;SDS011;1068;52.460;13.528;2022-09-09T01:07:26;4.87;;;4.40;;
2123;SDS011;1068;52.460;13.528;2022-09-09T01:09:55;4.40;;;4.07;;
2123;SDS011;1068;52.460;13.528;2022-09-09T01:12:24;4.17;;;3.97;;
2123;SDS011;1068;52.460;13.528;2022-09-09T01:14:52;4.50;;;4.10;;
2123;SDS011;1068;52.460;13.528;2022-09-09T01:17:23;6.47;;;4.10;;
2123;SDS011;1068;52.460;13.528;2022-09-09T01:19:57;4.93;;;4.50;;
2123;SDS011;1068;52.460;13.528;2022-09-09T01:22:29;4.03;;;3.83;;
2123;SDS011;1068;52.460;13.528;2022-09-09T01:27:46;3.93;;;3.63;;
2123;SDS011;1068;52.460;13.528;2022-09-09T01:30:15;4.57;;;4.27;;
2123;SDS011;1068;52.460;13.528;2022-09-09T01:32:43;3.70;;;3.50;;
2123;SDS011;1068;52.460;13.528;2022-09-09T01:35:12;4.97;;;4.67;;
2123;SDS011;1068;52.460;13.528;2022-09-09T01:37:41;3.80;;;3.50;;
2123;SDS011;1068;52.460;13.528;2022-09-09T01:40:08;4.80;;;4.40;;
2123;SDS011;1068;52.460;13.528;2022-09-09T01:42:36;4.07;;;3.77;;
2123;SDS011;1068;52.460;13.528;2022-09-09T01:45:04;4.17;;;3.97;;
2123;SDS011;1068;52.460;13.528;2022-09-09T01:47:32;4.80;;;4.40;;
2123;SDS011;1068;52.460;13.528;2022-09-09T01:49:59;4.93;;;4.63;;
2123;SDS011;1068;52.460;13.528;2022-09-09T01:52:26;5.83;;;5.27;;
2123;SDS011;1068;52.460;13.528;2022-09-09T01:54:54;4.70;;;4.33;;
2123;SDS011;1068;52.460;13.528;2022-09-09T01:57:21;5.53;;;5.23;;
2123;SDS011;1068;52.460;13.528;2022-09-09T01:59:53;4.93;;;4.57;;
2123;SDS011;1068;52.460;13.528;2022-09-09T02:02:26;5.40;;;4.63;;
2123;SDS011;1068;52.460;13.528;2022-09-09T02:04:56;4.63;;;4.30;;
2123;SDS011;1068;52.460;13.528;2022-09-09T02:07:28;5.13;;;4.17;;
2123;SDS011;1068;52.460;13.528;2022-09-09T02:09:59;4.80;;;4.57;;
2123;SDS011;1068;52.460;13.528;2022-09-09T02:12:27;4.17;;;3.50;;
2123;SDS011;1068;52.460;13.528;2022-09-09T02:14:55;3.93;;;3.73;;
2123;SDS011;1068;52.460;13.528;2022-09-09T02:17:24;4.37;;;4.17;;
2123;SDS011;1068;52.460;13.528;2022-09-09T02:19:54;4.37;;;4.13;;
2123;SDS011;1068;52.460;13.528;2022-09-09T02:22:23;4.10;;;3.90;;
2123;SDS011;1068;52.460;13.528;2022-09-09T02:24:51;4.63;;;4.33;;
2123;SDS011;1068;52.460;13.528;2022-09-09T02:27:20;4.30;;;4.10;;
2123;SDS011;1068;52.460;13.528;2022-09-09T02:29:47;4.50;;;4.20;;
2123;SDS011;1068;52.460;13.528;2022-09-09T02:32:16;5.27;;;4.80;;
2123;SDS011;1068;52.460;13.528;2022-09-09T02:34:45;4.07;;;3.70;;
2123;SDS011;1068;52.460;13.528;2022-09-09T02:37:14;4.57;;;4.17;;
2123;SDS011;1068;52.460;13.528;2022-09-09T02:39:42;4.77;;;4.47;;
2123;SDS011;1068;52.460;13.528;2022-09-09T02:42:09;7.87;;;4.33;;
2123;SDS011;1068;52.460;13.528;2022-09-09T02:44:36;4.60;;;4.30;;
2123;SDS011;1068;52.460;13.528;2022-09-09T02:49:48;4.63;;;4.30;;
2123;SDS011;1068;52.460;13.528;2022-09-09T02:52:20;5.17;;;4.63;;
2123;SDS011;1068;52.460;13.528;2022-09-09T02:54:50;11.03;;;4.40;;
2123;SDS011;1068;52.460;13.528;2022-09-09T02:57:22;4.63;;;4.30;;
2123;SDS011;1068;52.460;13.528;2022-09-09T02:59:50;4.70;;;4.30;;
2123;SDS011;1068;52.460;13.528;2022-09-09T03:02:17;4.50;;;4.20;;
2123;SDS011;1068;52.460;13.528;2022-09-09T03:04:44;4.83;;;4.53;;
2123;SDS011;1068;52.460;13.528;2022-09-09T03:07:15;4.23;;;3.83;;
2123;SDS011;1068;52.460;13.528;2022-09-09T03:09:44;4.90;;;4.50;;
2123;SDS011;1068;52.460;13.528;2022-09-09T03:12:11;4.87;;;4.30;;
2123;SDS011;1068;52.460;13.528;2022-09-09T03:14:38;5.17;;;4.77;;
2123;SDS011;1068;52.460;13.528;2022-09-09T03:17:06;4.43;;;4.13;;
2123;SDS011;1068;52.460;13.528;2022-09-09T03:19:34;4.90;;;4.60;;
2123;SDS011;1068;52.460;13.528;2022-09-09T03:22:01;5.17;;;4.67;;
2123;SDS011;1068;52.460;13.528;2022-09-09T03:24:29;4.70;;;4.40;;
2123;SDS011;1068;52.460;13.528;2022-09-09T03:26:57;5.43;;;5.10;;
2123;SDS011;1068;52.460;13.528;2022-09-09T03:29:24;5.20;;;4.80;;
2123;SDS011;1068;52.460;13.528;2022-09-09T03:31:51;5.43;;;5.03;;
2123;SDS011;1068;52.460;13.528;2022-09-09T03:34:19;4.90;;;4.60;;
2123;SDS011;1068;52.460;13.528;2022-09-09T03:36:46;6.27;;;5.67;;
2123;SDS011;1068;52.460;13.528;2022-09-09T03:39:14;5.80;;;5.13;;
2123;SDS011;1068;52.460;13.528;2022-09-09T03:41:41;5.60;;;5.13;;
2123;SDS011;1068;52.460;13.528;2022-09-09T03:44:11;5.70;;;5.30;;
2123;SDS011;1068;52.460;13.528;2022-09-09T03:46:38;5.47;;;4.97;;
2123;SDS011;1068;52.460;13.528;2022-09-09T03:49:05;6.17;;;5.73;;
2123;SDS011;1068;52.460;13.528;2022-09-09T03:51:32;5.60;;;5.20;;
2123;SDS011;1068;52.460;13.528;2022-09-09T03:54:01;6.30;;;5.23;;
2123;SDS011;1068;52.460;13.528;2022-09-09T03:56:30;5.33;;;4.90;;
2123;SDS011;1068;52.460;13.528;2022-09-09T03:58:57;5.50;;;4.90;;
2123;SDS011;1068;52.460;13.528;2022-09-09T04:01:25;5.43;;;4.90;;
2123;SDS011;1068;52.460;13.528;2022-09-09T04:03:52;4.83;;;4.53;;
2123;SDS011;1068;52.460;13.528;2022-09-09T04:06:22;5.40;;;4.90;;
2123;SDS011;1068;52.460;13.528;2022-09-09T04:08:49;4.50;;;4.20;;
2123;SDS011;1068;52.460;13.528;2022-09-09T04:11:17;4.60;;;4.20;;
2123;SDS011;1068;52.460;13.528;2022-09-09T04:13:44;6.27;;;5.87;;
2123;SDS011;1068;52.460;13.528;2022-09-09T04:16:12;5.27;;;4.77;;
2123;SDS011;1068;52.460;13.528;2022-09-09T04:18:40;9.43;;;4.90;;
2123;SDS011;1068;52.460;13.528;2022-09-09T04:21:08;6.60;;;5.50;;
2123;SDS011;1068;52.460;13.528;2022-09-09T04:23:37;4.07;;;3.83;;
2123;SDS011;1068;52.460;13.528;2022-09-09T04:26:04;5.43;;;4.97;;
2123;SDS011;1068;52.460;13.528;2022-09-09T04:28:32;6.17;;;5.03;;
2123;SDS011;1068;52.460;13.528;2022-09-09T04:31:03;5.20;;;4.90;;
2123;SDS011;1068;52.460;13.528;2022-09-09T04:33:30;4.70;;;4.30;;
2123;SDS011;1068;52.460;13.528;2022-09-09T04:35:58;5.17;;;4.80;;
2123;SDS011;1068;52.460;13.528;2022-09-09T04:38:25;6.50;;;4.93;;
2123;SDS011;1068;52.460;13.528;2022-09-09T04:40:52;8.83;;;4.97;;
2123;SDS011;1068;52.460;13.528;2022-09-09T04:43:19;5.37;;;4.97;;
2123;SDS011;1068;52.460;13.528;2022-09-09T04:45:47;8.77;;;5.00;;
2123;SDS011;1068;52.460;13.528;2022-09-09T04:48:15;7.30;;;5.30;;
2123;SDS011;1068;52.460;13.528;2022-09-09T04:50:42;9.57;;;5.57;;
2123;SDS011;1068;52.460;13.528;2022-09-09T04:53:10;4.90;;;4.60;;
2123;SDS011;1068;52.460;13.528;2022-09-09T04:55:37;6.27;;;5.30;;
2123;SDS011;1068;52.460;13.528;2022-09-09T04:58:04;6.10;;;5.50;;
2123;SDS011;1068;52.460;13.528;2022-09-09T05:00:31;6.43;;;5.50;;
2123;SDS011;1068;52.460;13.528;2022-09-09T05:02:58;10.20;;;5.90;;
2123;SDS011;1068;52.460;13.528;2022-09-09T05:05:28;8.17;;;4.87;;
2123;SDS011;1068;52.460;13.528;2022-09-09T05:08:00;13.20;;;6.30;;
2123;SDS011;1068;52.460;13.528;2022-09-09T05:10:28;6.23;;;5.73;;
2123;SDS011;1068;52.460;13.528;2022-09-09T05:12:55;6.43;;;5.67;;
2123;SDS011;1068;52.460;13.528;2022-09-09T05:15:22;6.10;;;5.60;;
2123;SDS011;1068;52.460;13.528;2022-09-09T05:17:49;11.67;;;6.13;;
2123;SDS011;1068;52.460;13.528;2022-09-09T05:20:18;11.60;;;6.50;;
2123;SDS011;1068;52.460;13.528;2022-09-09T05:22:45;16.50;;;7.53;;
2123;SDS011;1068;52.460;13.528;2022-09-09T05:25:11;7.50;;;6.70;;
2123;SDS011;1068;52.460;13.528;2022-09-09T05:27:40;10.23;;;6.40;;
2123;SDS011;1068;52.460;13.528;2022-09-09T05:30:07;11.03;;;6.30;;
2123;SDS011;1068;52.460;13.528;2022-09-09T05:32:34;6.53;;;5.70;;
2123;SDS011;1068;52.460;13.528;2022-09-09T05:35:01;8.43;;;6.77;;
2123;SDS011;1068;52.460;13.528;2022-09-09T05:37:30;8.27;;;6.13;;
2123;SDS011;1068;52.460;13.528;2022-09-09T05:39:57;6.00;;;5.40;;
2123;SDS011;1068;52.460;13.528;2022-09-09T05:42:28;8.67;;;5.63;;
2123;SDS011;1068;52.460;13.528;2022-09-09T05:44:57;10.80;;;5.77;;
2123;SDS011;1068;52.460;13.528;2022-09-09T05:47:24;8.73;;;5.73;;
2123;SDS011;1068;52.460;13.528;2022-09-09T05:49:52;5.60;;;5.20;;
2123;SDS011;1068;52.460;13.528;2022-09-09T05:52:19;8.60;;;6.00;;
2123;SDS011;1068;52.460;13.528;2022-09-09T05:54:47;6.90;;;6.30;;
2123;SDS011;1068;52.460;13.528;2022-09-09T05:57:14;7.70;;;6.67;;
2123;SDS011;1068;52.460;13.528;2022-09-09T05:59:42;9.57;;;7.70;;
2123;SDS011;1068;52.460;13.528;2022-09-09T06:02:10;7.10;;;5.93;;
2123;SDS011;1068;52.460;13.528;2022-09-09T06:04:37;9.20;;;6.57;;
2123;SDS011;1068;52.460;13.528;2022-09-09T06:07:04;7.33;;;5.77;;
2123;SDS011;1068;52.460;13.528;2022-09-09T06:09:31;5.07;;;4.67;;
2123;SDS011;1068;52.460;13.528;2022-09-09T06:11:58;6.73;;;5.10;;
2123;SDS011;1068;52.460;13.528;2022-09-09T06:14:25;6.67;;;5.37;;
2123;SDS011;1068;52.460;13.528;2022-09-09T06:16:52;4.77;;;4.27;;
2123;SDS011;1068;52.460;13.528;2022-09-09T06:19:21;4.40;;;4.00;;
2123;SDS011;1068;52.460;13.528;2022-09-09T06:21:49;4.23;;;3.80;;
2123;SDS011;1068;52.460;13.528;2022-09-09T06:24:16;5.83;;;3.97;;
2123;SDS011;1068;52.460;13.528;2022-09-09T06:26:44;6.13;;;3.27;;
2123;SDS011;1068;52.460;13.528;2022-09-09T06:29:11;3.93;;;3.60;;
2123;SDS011;1068;52.460;13.528;2022-09-09T06:31:38;4.73;;;4.10;;
2123;SDS011;1068;52.460;13.528;2022-09-09T06:34:06;8.10;;;4.07;;
2123;SDS011;1068;52.460;13.528;2022-09-09T06:36:36;6.23;;;3.37;;
2123;SDS011;1068;52.460;13.528;2022-09-09T06:39:04;3.87;;;3.10;;
2123;SDS011;1068;52.460;13.528;2022-09-09T06:41:31;4.97;;;3.00;;
2123;SDS011;1068;52.460;13.528;2022-09-09T06:43:58;3.10;;;2.90;;
2123;SDS011;1068;52.460;13.528;2022-09-09T06:46:26;6.00;;;3.20;;
2123;SDS011;1068;52.460;13.528;2022-09-09T06:48:55;3.53;;;3.23;;
2123;SDS011;1068;52.460;13.528;2022-09-09T06:51:25;4.17;;;3.03;;
2123;SDS011;1068;52.460;13.528;2022-09-09T06:53:54;3.40;;;2.60;;
2123;SDS011;1068;52.460;13.528;2022-09-09T06:56:21;3.63;;;2.83;;
2123;SDS011;1068;52.460;13.528;2022-09-09T06:58:49;3.20;;;2.70;;
2123;SDS011;1068;52.460;13.528;2022-09-09T07:01:17;3.03;;;2.70;;
2123;SDS011;1068;52.460;13.528;2022-09-09T07:03:45;6.33;;;2.60;;
2123;SDS011;1068;52.460;13.528;2022-09-09T07:06:13;4.97;;;2.37;;
2123;SDS011;1068;52.460;13.528;2022-09-09T07:08:41;3.77;;;3.43;;
2123;SDS011;1068;52.460;13.528;2022-09-09T07:11:10;2.20;;;2.10;;
2123;SDS011;1068;52.460;13.528;2022-09-09T07:13:37;3.60;;;2.70;;
2123;SDS011;1068;52.460;13.528;2022-09-09T07:16:04;5.07;;;2.63;;
2123;SDS011;1068;52.460;13.528;2022-09-09T07:18:31;2.80;;;2.60;;
2123;SDS011;1068;52.460;13.528;2022-09-09T07:20:59;2.80;;;2.33;;
2123;SDS011;1068;52.460;13.528;2022-09-09T07:23:27;9.23;;;2.80;;
2123;SDS011;1068;52.460;13.528;2022-09-09T07:25:54;3.03;;;1.80;;
2123;SDS011;1068;52.460;13.528;2022-09-09T07:28:23;4.50;;;2.20;;
2123;SDS011;1068;52.460;13.528;2022-09-09T07:30:54;2.60;;;2.13;;
2123;SDS011;1068;52.460;13.528;2022-09-09T07:33:21;3.47;;;2.03;;
2123;SDS011;1068;52.460;13.528;2022-09-09T07:35:48;3.97;;;2.00;;
2123;SDS011;1068;52.460;13.528;2022-09-09T07:38:15;7.97;;;2.10;;
2123;SDS011;1068;52.460;13.528;2022-09-09T07:40:43;3.80;;;1.97;;
2123;SDS011;1068;52.460;13.528;2022-09-09T07:43:10;2.63;;;2.00;;
2123;SDS011;1068;52.460;13.528;2022-09-09T07:45:39;4.93;;;1.80;;
2123;SDS011;1068;52.460;13.528;2022-09-09T07:48:06;1.90;;;1.80;;
2123;SDS011;1068;52.460;13.528;2022-09-09T07:50:33;2.07;;;1.90;;
2123;SDS011;1068;52.460;13.528;2022-09-09T07:53:01;1.83;;;1.57;;
2123;SDS011;1068;52.460;13.528;2022-09-09T07:55:30;4.73;;;2.03;;
2123;SDS011;1068;52.460;13.528;2022-09-09T07:57:57;7.23;;;1.90;;
2123;SDS011;1068;52.460;13.528;2022-09-09T08:00:24;3.47;;;2.03;;
2123;SDS011;1068;52.460;13.528;2022-09-09T08:02:54;1.60;;;1.50;;
2123;SDS011;1068;52.460;13.528;2022-09-09T08:05:21;2.07;;;1.50;;
2123;SDS011;1068;52.460;13.528;2022-09-09T08:07:48;2.73;;;2.03;;
2123;SDS011;1068;52.460;13.528;2022-09-09T08:10:15;3.20;;;1.63;;
2123;SDS011;1068;52.460;13.528;2022-09-09T08:12:43;4.27;;;1.67;;
2123;SDS011;1068;52.460;13.528;2022-09-09T08:15:10;3.53;;;1.50;;
2123;SDS011;1068;52.460;13.528;2022-09-09T08:17:37;13.20;;;2.93;;
2123;SDS011;1068;52.460;13.528;2022-09-09T08:20:06;1.50;;;1.40;;
2123;SDS011;1068;52.460;13.528;2022-09-09T08:22:33;2.40;;;1.50;;
2123;SDS011;1068;52.460;13.528;2022-09-09T08:25:02;2.40;;;1.50;;
2123;SDS011;1068;52.460;13.528;2022-09-09T08:27:31;2.67;;;1.70;;
2123;SDS011;1068;52.460;13.528;2022-09-09T08:29:58;3.17;;;1.47;;
2123;SDS011;1068;52.460;13.528;2022-09-09T08:32:25;4.00;;;2.00;;
2123;SDS011;1068;52.460;13.528;2022-09-09T08:34:52;3.23;;;1.60;;
2123;SDS011;1068;52.460;13.528;2022-09-09T08:37:20;3.03;;;1.90;;
2123;SDS011;1068;52.460;13.528;2022-09-09T08:39:47;4.73;;;1.67;;
2123;SDS011;1068;52.460;13.528;2022-09-09T08:42:17;4.13;;;1.90;;
2123;SDS011;1068;52.460;13.528;2022-09-09T08:44:54;2.20;;;1.37;;
2123;SDS011;1068;52.460;13.528;2022-09-09T08:47:26;3.77;;;1.60;;
2123;SDS011;1068;52.460;13.528;2022-09-09T08:50:01;1.80;;;1.37;;
2123;SDS011;1068;52.460;13.528;2022-09-09T08:52:31;2.53;;;1.60;;
2123;SDS011;1068;52.460;13.528;2022-09-09T08:55:02;2.73;;;1.87;;
2123;SDS011;1068;52.460;13.528;2022-09-09T08:57:30;5.33;;;1.50;;
2123;SDS011;1068;52.460;13.528;2022-09-09T08:59:57;3.33;;;1.93;;
2123;SDS011;1068;52.460;13.528;2022-09-09T09:02:25;4.27;;;1.90;;
2123;SDS011;1068;52.460;13.528;2022-09-09T09:04:56;10.90;;;2.20;;
2123;SDS011;1068;52.460;13.528;2022-09-09T09:07:28;3.73;;;1.40;;
2123;SDS011;1068;52.460;13.528;2022-09-09T09:10:00;2.57;;;1.43;;
2123;SDS011;1068;52.460;13.528;2022-09-09T09:12:32;1.60;;;1.20;;
2123;SDS011;1068;52.460;13.528;2022-09-09T09:15:02;2.70;;;1.50;;
2123;SDS011;1068;52.460;13.528;2022-09-09T09:17:29;4.83;;;2.00;;
2123;SDS011;1068;52.460;13.528;2022-09-09T09:19:58;3.00;;;1.70;;
2123;SDS011;1068;52.460;13.528;2022-09-09T09:22:26;2.40;;;1.27;;
2123;SDS011;1068;52.460;13.528;2022-09-09T09:25:01;3.77;;;1.93;;
2123;SDS011;1068;52.460;13.528;2022-09-09T09:27:31;2.73;;;1.37;;
2123;SDS011;1068;52.460;13.528;2022-09-09T09:29:59;3.77;;;1.50;;
2123;SDS011;1068;52.460;13.528;2022-09-09T09:32:27;4.03;;;1.60;;
2123;SDS011;1068;52.460;13.528;2022-09-09T09:34:55;3.23;;;1.90;;
2123;SDS011;1068;52.460;13.528;2022-09-09T09:37:25;2.40;;;2.20;;
2123;SDS011;1068;52.460;13.528;2022-09-09T09:39:53;2.87;;;1.50;;
2123;SDS011;1068;52.460;13.528;2022-09-09T09:42:22;2.40;;;1.40;;
2123;SDS011;1068;52.460;13.528;2022-09-09T09:44:49;2.10;;;1.90;;
2123;SDS011;1068;52.460;13.528;2022-09-09T09:47:17;5.60;;;2.20;;
2123;SDS011;1068;52.460;13.528;2022-09-09T09:49:51;2.30;;;1.30;;
2123;SDS011;1068;52.460;13.528;2022-09-09T09:52:20;2.93;;;1.40;;
2123;SDS011;1068;52.460;13.528;2022-09-09T09:54:48;5.10;;;1.83;;
2123;SDS011;1068;52.460;13.528;2022-09-09T09:57:16;1.37;;;1.27;;
2123;SDS011;1068;52.460;13.528;2022-09-09T09:59:44;3.80;;;1.30;;
2123;SDS011;1068;52.460;13.528;2022-09-09T10:02:17;2.53;;;1.50;;
2123;SDS011;1068;52.460;13.528;2022-09-09T10:04:44;6.37;;;1.80;;
2123;SDS011;1068;52.460;13.528;2022-09-09T10:07:11;2.70;;;1.30;;
2123;SDS011;1068;52.460;13.528;2022-09-09T10:09:39;1.60;;;1.17;;
2123;SDS011;1068;52.460;13.528;2022-09-09T10:12:08;2.40;;;1.30;;
2123;SDS011;1068;52.460;13.528;2022-09-09T10:14:40;2.83;;;1.57;;
2123;SDS011;1068;52.460;13.528;2022-09-09T10:17:16;4.83;;;1.57;;
2123;SDS011;1068;52.460;13.528;2022-09-09T10:19:48;3.63;;;1.63;;
2123;SDS011;1068;52.460;13.528;2022-09-09T10:22:23;1.87;;;1.23;;
2123;SDS011;1068;52.460;13.528;2022-09-09T10:27:38;3.53;;;1.47;;
2123;SDS011;1068;52.460;13.528;2022-09-09T10:30:12;1.87;;;0.90;;
2123;SDS011;1068;52.460;13.528;2022-09-09T10:32:45;3.97;;;1.30;;
2123;SDS011;1068;52.460;13.528;2022-09-09T10:35:15;6.30;;;1.40;;
2123;SDS011;1068;52.460;13.528;2022-09-09T10:37:50;1.00;;;0.90;;
2123;SDS011;1068;52.460;13.528;2022-09-09T10:40:21;3.20;;;1.50;;
2123;SDS011;1068;52.460;13.528;2022-09-09T10:42:51;3.93;;;1.10;;
2123;SDS011;1068;52.460;13.528;2022-09-09T10:45:18;4.20;;;1.40;;
2123;SDS011;1068;52.460;13.528;2022-09-09T10:47:55;2.83;;;1.10;;
2123;SDS011;1068;52.460;13.528;2022-09-09T10:50:33;3.70;;;1.47;;
2123;SDS011;1068;52.460;13.528;2022-09-09T10:53:07;2.60;;;1.30;;
2123;SDS011;1068;52.460;13.528;2022-09-09T10:55:37;1.83;;;1.20;;
2123;SDS011;1068;52.460;13.528;2022-09-09T10:58:08;2.00;;;1.10;;
2123;SDS011;1068;52.460;13.528;2022-09-09T11:00:37;1.30;;;1.20;;
2123;SDS011;1068;52.460;13.528;2022-09-09T11:03:09;2.40;;;1.17;;
2123;SDS011;1068;52.460;13.528;2022-09-09T11:05:44;1.30;;;1.10;;
2123;SDS011;1068;52.460;13.528;2022-09-09T11:08:13;4.20;;;1.23;;
2123;SDS011;1068;52.460;13.528;2022-09-09T11:10:43;3.13;;;1.40;;
2123;SDS011;1068;52.460;13.528;2022-09-09T11:13:14;1.30;;;1.20;;
2123;SDS011;1068;52.460;13.528;2022-09-09T11:15:43;5.43;;;1.00;;
2123;SDS011;1068;52.460;13.528;2022-09-09T11:18:13;2.50;;;1.30;;
2123;SDS011;1068;52.460;13.528;2022-09-09T11:20:42;1.73;;;1.40;;
2123;SDS011;1068;52.460;13.528;2022-09-09T11:23:11;2.70;;;1.30;;
2123;SDS011;1068;52.460;13.528;2022-09-09T11:25:40;1.73;;;1.17;;
2123;SDS011;1068;52.460;13.528;2022-09-09T11:28:13;2.60;;;1.17;;
2123;SDS011;1068;52.460;13.528;2022-09-09T11:30:49;2.10;;;1.27;;
2123;SDS011;1068;52.460;13.528;2022-09-09T11:33:38;3.23;;;1.40;;
2123;SDS011;1068;52.460;13.528;2022-09-09T11:36:16;2.13;;;1.20;;
2123;SDS011;1068;52.460;13.528;2022-09-09T11:38:46;2.60;;;1.90;;
2123;SDS011;1068;52.460;13.528;2022-09-09T11:41:16;2.07;;;1.40;;
2123;SDS011;1068;52.460;13.528;2022-09-09T11:43:43;3.33;;;1.73;;
2123;SDS011;1068;52.460;13.528;2022-09-09T11:46:11;1.77;;;1.00;;
2123;SDS011;1068;52.460;13.528;2022-09-09T11:48:40;3.60;;;1.30;;
2123;SDS011;1068;52.460;13.528;2022-09-09T11:51:11;1.00;;;0.80;;
2123;SDS011;1068;52.460;13.528;2022-09-09T11:53:48;6.60;;;1.33;;
2123;SDS011;1068;52.460;13.528;2022-09-09T11:56:23;1.90;;;1.10;;
2123;SDS011;1068;52.460;13.528;2022-09-09T11:58:56;2.90;;;1.30;;
2123;SDS011;1068;52.460;13.528;2022-09-09T12:01:36;2.20;;;1.70;;
2123;SDS011;1068;52.460;13.528;2022-09-09T12:04:12;1.83;;;0.90;;
2123;SDS011;1068;52.460;13.528;2022-09-09T12:06:43;3.53;;;1.10;;
2123;SDS011;1068;52.460;13.528;2022-09-09T12:09:15;4.43;;;0.90;;
2123;SDS011;1068;52.460;13.528;2022-09-09T12:11:43;2.97;;;1.10;;
2123;SDS011;1068;52.460;13.528;2022-09-09T12:14:18;3.23;;;1.00;;
2123;SDS011;1068;52.460;13.528;2022-09-09T12:16:46;2.40;;;0.97;;
2123;SDS011;1068;52.460;13.528;2022-09-09T12:19:15;3.10;;;1.23;;
2123;SDS011;1068;52.460;13.528;2022-09-09T12:21:45;1.93;;;1.73;;
2123;SDS011;1068;52.460;13.528;2022-09-09T12:24:14;3.30;;;1.50;;
2123;SDS011;1068;52.460;13.528;2022-09-09T12:26:46;3.80;;;1.60;;
2123;SDS011;1068;52.460;13.528;2022-09-09T12:29:19;5.60;;;1.47;;
2123;SDS011;1068;52.460;13.528;2022-09-09T12:31:51;2.60;;;1.07;;
2123;SDS011;1068;52.460;13.528;2022-09-09T12:34:23;3.20;;;1.33;;
2123;SDS011;1068;52.460;13.528;2022-09-09T12:36:53;4.10;;;1.87;;
2123;SDS011;1068;52.460;13.528;2022-09-09T12:39:24;1.73;;;1.20;;
2123;SDS011;1068;52.460;13.528;2022-09-09T12:41:55;1.53;;;0.97;;
2123;SDS011;1068;52.460;13.528;2022-09-09T12:44:23;4.30;;;1.73;;
2123;SDS011;1068;52.460;13.528;2022-09-09T12:46:50;2.40;;;1.10;;
2123;SDS011;1068;52.460;13.528;2022-09-09T12:49:25;1.47;;;1.03;;
2123;SDS011;1068;52.460;13.528;2022-09-09T12:51:53;1.40;;;0.80;;
2123;SDS011;1068;52.460;13.528;2022-09-09T12:54:22;4.43;;;1.40;;
2123;SDS011;1068;52.460;13.528;2022-09-09T12:56:49;2.10;;;1.23;;
2123;SDS011;1068;52.460;13.528;2022-09-09T12:59:21;2.10;;;1.17;;
2123;SDS011;1068;52.460;13.528;2022-09-09T13:01:54;2.20;;;1.20;;
2123;SDS011;1068;52.460;13.528;2022-09-09T13:04:21;1.57;;;1.13;;
2123;SDS011;1068;52.460;13.528;2022-09-09T13:06:50;3.17;;;1.43;;
2123;SDS011;1068;52.460;13.528;2022-09-09T13:09:18;2.40;;;1.10;;
2123;SDS011;1068;52.460;13.528;2022-09-09T13:11:45;3.27;;;1.50;;
2123;SDS011;1068;52.460;13.528;2022-09-09T13:14:13;2.13;;;1.10;;
2123;SDS011;1068;52.460;13.528;2022-09-09T13:16:53;3.70;;;1.10;;
2123;SDS011;1068;52.460;13.528;2022-09-09T13:19:21;2.90;;;1.20;;
2123;SDS011;1068;52.460;13.528;2022-09-09T13:21:51;1.30;;;0.90;;
2123;SDS011;1068;52.460;13.528;2022-09-09T13:24:26;1.40;;;0.90;;
2123;SDS011;1068;52.460;13.528;2022-09-09T13:26:54;2.77;;;0.93;;
2123;SDS011;1068;52.460;13.528;2022-09-09T13:29:22;0.90;;;0.80;;
2123;SDS011;1068;52.460;13.528;2022-09-09T13:31:49;1.60;;;0.90;;
2123;SDS011;1068;52.460;13.528;2022-09-09T13:34:25;1.73;;;1.20;;
2123;SDS011;1068;52.460;13.528;2022-09-09T13:36:54;4.97;;;1.17;;
2123;SDS011;1068;52.460;13.528;2022-09-09T13:39:22;1.27;;;0.80;;
2123;SDS011;1068;52.460;13.528;2022-09-09T13:41:49;1.87;;;0.80;;
2123;SDS011;1068;52.460;13.528;2022-09-09T13:44:19;1.40;;;1.07;;
2123;SDS011;1068;52.460;13.528;2022-09-09T13:46:48;2.60;;;1.10;;
2123;SDS011;1068;52.460;13.528;2022-09-09T13:49:27;0.90;;;0.80;;
2123;SDS011;1068;52.460;13.528;2022-09-09T13:52:04;1.97;;;0.83;;
2123;SDS011;1068;52.460;13.528;2022-09-09T13:54:32;3.03;;;0.90;;
2123;SDS011;1068;52.460;13.528;2022-09-09T13:56:59;1.67;;;1.07;;
2123;SDS011;1068;52.460;13.528;2022-09-09T13:59:27;1.70;;;1.00;;
2123;SDS011;1068;52.460;13.528;2022-09-09T14:01:54;1.63;;;0.80;;
2123;SDS011;1068;52.460;13.528;2022-09-09T14:04:21;1.07;;;0.83;;
2123;SDS011;1068;52.460;13.528;2022-09-09T14:06:48;1.40;;;1.00;;
2123;SDS011;1068;52.460;13.528;2022-09-09T14:09:17;1.27;;;0.83;;
2123;SDS011;1068;52.460;13.528;2022-09-09T14:11:44;1.97;;;0.97;;
2123;SDS011;1068;52.460;13.528;2022-09-09T14:14:11;1.57;;;1.03;;
2123;SDS011;1068;52.460;13.528;2022-09-09T14:16:38;1.83;;;1.50;;
2123;SDS011;1068;52.460;13.528;2022-09-09T14:19:05;1.20;;;0.80;;
2123;SDS011;1068;52.460;13.528;2022-09-09T14:21:32;0.90;;;0.80;;
2123;SDS011;1068;52.460;13.528;2022-09-09T14:23:59;3.20;;;1.40;;
2123;SDS011;1068;52.460;13.528;2022-09-09T14:26:27;1.10;;;0.90;;
2123;SDS011;1068;52.460;13.528;2022-09-09T14:28:55;1.73;;;1.30;;
2123;SDS011;1068;52.460;13.528;2022-09-09T14:31:22;3.33;;;1.07;;
2123;SDS011;1068;52.460;13.528;2022-09-09T14:33:49;1.33;;;1.00;;
2123;SDS011;1068;52.460;13.528;2022-09-09T14:36:16;2.37;;;1.20;;
2123;SDS011;1068;52.460;13.528;2022-09-09T14:38:43;1.20;;;1.00;;
2123;SDS011;1068;52.460;13.528;2022-09-09T14:41:10;3.17;;;1.17;;
2123;SDS011;1068;52.460;13.528;2022-09-09T14:43:39;1.80;;;1.27;;
2123;SDS011;1068;52.460;13.528;2022-09-09T14:46:06;2.97;;;1.10;;
2123;SDS011;1068;52.460;13.528;2022-09-09T14:48:33;1.60;;;0.90;;
2123;SDS011;1068;52.460;13.528;2022-09-09T14:51:04;1.30;;;1.00;;
2123;SDS011;1068;52.460;13.528;2022-09-09T14:53:31;2.00;;;0.90;;
2123;SDS011;1068;52.460;13.528;2022-09-09T14:56:02;3.70;;;1.00;;
2123;SDS011;1068;52.460;13.528;2022-09-09T14:58:30;1.77;;;1.03;;
2123;SDS011;1068;52.460;13.528;2022-09-09T15:01:02;2.70;;;1.30;;
2123;SDS011;1068;52.460;13.528;2022-09-09T15:03:29;2.80;;;1.27;;
2123;SDS011;1068;52.460;13.528;2022-09-09T15:05:57;4.07;;;2.03;;
2123;SDS011;1068;52.460;13.528;2022-09-09T15:08:24;3.53;;;1.33;;
2123;SDS011;1068;52.460;13.528;2022-09-09T15:10:51;1.90;;;1.17;;
2123;SDS011;1068;52.460;13.528;2022-09-09T15:13:24;2.43;;;1.90;;
2123;SDS011;1068;52.460;13.528;2022-09-09T15:15:51;3.23;;;1.70;;
2123;SDS011;1068;52.460;13.528;2022-09-09T15:18:20;2.03;;;1.20;;
2123;SDS011;1068;52.460;13.528;2022-09-09T15:20:47;2.47;;;1.30;;